createdAt,value
2024-03-08T00:00:22.295Z,0.60
2024-03-08T00:03:11.941Z,0.58
2024-03-08T00:05:40.658Z,0.54
2024-03-08T00:08:11.617Z,0.53
2024-03-08T00:10:40.671Z,0.50
2024-03-08T00:13:09.241Z,0.50
2024-03-08T00:15:37.661Z,0.50
2024-03-08T00:18:06.139Z,0.49
2024-03-08T00:20:34.808Z,0.47
2024-03-08T00:23:04.119Z,0.44
2024-03-08T00:25:32.528Z,0.44
2024-03-08T00:28:01.482Z,0.43
2024-03-08T00:30:29.893Z,0.43
2024-03-08T00:32:58.612Z,0.40
2024-03-08T00:35:27.226Z,0.41
2024-03-08T00:37:57.882Z,0.41
2024-03-08T00:40:26.279Z,0.43
2024-03-08T00:42:54.933Z,0.43
2024-03-08T00:45:25.071Z,0.45
2024-03-08T00:47:53.643Z,0.44
2024-03-08T00:50:22.145Z,0.43
2024-03-08T00:52:51.505Z,0.37
2024-03-08T00:55:19.850Z,0.37
2024-03-08T00:57:48.165Z,0.37
2024-03-08T01:00:16.954Z,0.37
2024-03-08T01:02:45.518Z,0.33
2024-03-08T01:05:15.067Z,0.32
2024-03-08T01:07:43.412Z,0.33
2024-03-08T01:10:11.926Z,0.30
2024-03-08T01:12:41.099Z,0.27
2024-03-08T01:15:12.027Z,0.26
2024-03-08T01:17:40.714Z,0.25
2024-03-08T01:20:12.617Z,0.25
2024-03-08T01:22:42.004Z,0.23
2024-03-08T01:25:10.415Z,0.22
2024-03-08T01:27:38.716Z,0.21
2024-03-08T01:30:07.870Z,0.20
2024-03-08T01:32:36.771Z,0.17
2024-03-08T01:35:05.706Z,0.17
2024-03-08T01:37:33.963Z,0.15
2024-03-08T01:40:02.243Z,0.13
2024-03-08T01:42:30.605Z,0.14
2024-03-08T01:44:59.269Z,0.13
2024-03-08T01:47:28.118Z,0.12
2024-03-08T01:49:56.674Z,0.12
2024-03-08T01:52:26.638Z,0.10
2024-03-08T01:54:55.345Z,0.10
2024-03-08T01:57:24.255Z,0.10
2024-03-08T01:59:55.930Z,0.11
2024-03-08T02:02:24.425Z,0.11
2024-03-08T02:04:54.486Z,0.10
2024-03-08T02:07:23.405Z,0.10
2024-03-08T02:09:52.491Z,0.10
2024-03-08T02:12:22.435Z,0.10
2024-03-08T02:14:50.955Z,0.12
2024-03-08T02:17:19.335Z,0.12
2024-03-08T02:19:47.931Z,0.14
2024-03-08T02:22:16.328Z,0.16
2024-03-08T02:24:44.894Z,0.19
2024-03-08T02:27:13.418Z,0.22
2024-03-08T02:29:44.085Z,0.24
2024-03-08T02:32:12.473Z,0.28
2024-03-08T02:34:40.797Z,0.28
2024-03-08T02:37:09.965Z,0.28
2024-03-08T02:39:38.257Z,0.25
2024-03-08T02:42:06.830Z,0.22
2024-03-08T02:44:35.227Z,0.21
2024-03-08T02:47:03.604Z,0.17
2024-03-08T02:49:32.285Z,0.15
2024-03-08T02:52:01.087Z,0.12
2024-03-08T02:54:29.650Z,0.09
2024-03-08T02:56:57.991Z,0.05
2024-03-08T02:59:26.290Z,0.03
2024-03-08T03:01:54.611Z,0.01
2024-03-08T03:04:22.898Z,-0.01
2024-03-08T03:06:51.256Z,-0.04
2024-03-08T03:09:24.992Z,-0.05
2024-03-08T03:11:53.337Z,-0.05
2024-03-08T03:14:23.225Z,-0.07
2024-03-08T03:16:51.568Z,-0.08
2024-03-08T03:19:19.864Z,-0.09
2024-03-08T03:21:48.575Z,-0.12
2024-03-08T03:24:17.947Z,-0.14
2024-03-08T03:26:47.423Z,-0.15
2024-03-08T03:29:17.004Z,-0.16
2024-03-08T03:31:48.198Z,-0.16
2024-03-08T03:34:16.803Z,-0.16
2024-03-08T03:36:48.551Z,-0.15
2024-03-08T03:39:21.480Z,-0.16
2024-03-08T03:41:53.451Z,-0.16
2024-03-08T03:44:21.813Z,-0.18
2024-03-08T03:46:50.091Z,-0.16
2024-03-08T03:49:18.488Z,-0.14
2024-03-08T03:51:47.184Z,-0.09
2024-03-08T03:54:15.582Z,-0.05
2024-03-08T03:56:43.932Z,-0.03
2024-03-08T03:59:13.406Z,-0.00
2024-03-08T04:01:44.861Z,-0.01
2024-03-08T04:04:13.888Z,-0.02
2024-03-08T04:06:42.787Z,-0.02
2024-03-08T04:09:11.297Z,-0.02
2024-03-08T04:11:40.524Z,-0.04
2024-03-08T04:14:09.100Z,-0.05
2024-03-08T04:16:37.608Z,-0.07
2024-03-08T04:19:06.009Z,-0.09
2024-03-08T04:21:34.434Z,-0.10
2024-03-08T04:24:02.827Z,-0.13
2024-03-08T04:26:31.312Z,-0.14
2024-03-08T04:28:59.688Z,-0.16
2024-03-08T04:31:28.250Z,-0.16
2024-03-08T04:33:56.750Z,-0.18
2024-03-08T04:36:26.279Z,-0.22
2024-03-08T04:38:54.673Z,-0.21
2024-03-08T04:41:24.698Z,-0.21
2024-03-08T04:43:53.543Z,-0.21
2024-03-08T04:46:21.892Z,-0.20
2024-03-08T04:48:50.209Z,-0.22
2024-03-08T04:51:21.018Z,-0.23
2024-03-08T04:53:49.513Z,-0.22
2024-03-08T04:56:17.859Z,-0.20
2024-03-08T04:58:49.581Z,-0.17
2024-03-08T05:01:18.102Z,-0.17
2024-03-08T05:03:47.159Z,-0.16
2024-03-08T05:06:15.506Z,-0.17
2024-03-08T05:08:44.148Z,-0.14
2024-03-08T05:11:12.516Z,-0.10
2024-03-08T05:13:41.474Z,-0.05
2024-03-08T05:16:09.833Z,0.01
2024-03-08T05:18:38.210Z,0.05
2024-03-08T05:21:06.730Z,0.10
2024-03-08T05:23:35.653Z,0.14
2024-03-08T05:26:05.461Z,0.17
2024-03-08T05:28:34.826Z,0.18
2024-03-08T05:31:03.260Z,0.22
2024-03-08T05:33:31.750Z,0.20
2024-03-08T05:36:00.807Z,0.18
2024-03-08T05:38:29.637Z,0.14
2024-03-08T05:40:57.941Z,0.18
2024-03-08T05:43:26.292Z,0.20
2024-03-08T05:45:54.602Z,0.21
2024-03-08T05:48:23.942Z,0.24
2024-03-08T05:50:52.600Z,0.27
2024-03-08T05:53:21.140Z,0.29
2024-03-08T05:55:50.825Z,0.32
2024-03-08T05:58:19.138Z,0.36
2024-03-08T06:00:49.168Z,0.40
2024-03-08T06:03:22.982Z,0.40
2024-03-08T06:05:51.712Z,0.42
2024-03-08T06:08:20.467Z,0.46
2024-03-08T06:10:54.090Z,0.50
2024-03-08T06:13:22.953Z,0.54
2024-03-08T06:15:51.533Z,0.59
2024-03-08T06:18:20.040Z,0.68
2024-03-08T06:20:48.449Z,0.72
2024-03-08T06:23:19.365Z,0.76
2024-03-08T06:25:48.103Z,0.84
2024-03-08T06:28:16.517Z,0.93
2024-03-08T06:30:44.891Z,0.99
2024-03-08T06:33:13.336Z,1.04
2024-03-08T06:35:41.803Z,1.05
2024-03-08T06:38:10.377Z,1.11
2024-03-08T06:40:38.794Z,1.17
2024-03-08T06:43:07.462Z,1.25
2024-03-08T06:45:38.394Z,1.29
2024-03-08T06:48:11.263Z,1.35
2024-03-08T06:50:39.803Z,1.44
2024-03-08T06:53:08.214Z,1.49
2024-03-08T06:55:36.666Z,1.54
2024-03-08T06:58:05.523Z,1.60
2024-03-08T07:00:34.893Z,1.65
2024-03-08T07:03:03.800Z,1.67
2024-03-08T07:05:32.497Z,1.75
2024-03-08T07:08:01.472Z,1.74
2024-03-08T07:10:30.510Z,1.83
2024-03-08T07:12:58.894Z,1.88
2024-03-08T07:15:27.556Z,1.97
2024-03-08T07:17:56.573Z,1.97
2024-03-08T07:20:24.951Z,2.08
2024-03-08T07:22:53.442Z,2.07
2024-03-08T07:25:30.751Z,2.09
2024-03-08T07:27:59.232Z,2.11
2024-03-08T07:30:47.332Z,2.19
2024-03-08T07:33:16.108Z,2.34
2024-03-08T07:35:45.812Z,2.43
2024-03-08T07:38:14.613Z,2.51
2024-03-08T07:40:47.528Z,2.63
2024-03-08T07:43:16.258Z,2.71
2024-03-08T07:45:44.877Z,2.78
2024-03-08T07:48:14.606Z,2.87
2024-03-08T07:50:43.512Z,2.97
2024-03-08T07:53:12.137Z,2.99
2024-03-08T07:55:43.987Z,3.03
2024-03-08T07:58:12.568Z,3.08
2024-03-08T08:00:40.840Z,3.20
2024-03-08T08:03:10.167Z,3.21
2024-03-08T08:05:40.268Z,3.19
2024-03-08T08:08:12.732Z,3.05
2024-03-08T08:10:41.606Z,3.13
2024-03-08T08:13:10.095Z,3.25
2024-03-08T08:15:38.868Z,3.29
2024-03-08T08:18:08.038Z,3.43
2024-03-08T08:20:36.754Z,3.59
2024-03-08T08:23:05.285Z,3.83
2024-03-08T08:25:36.291Z,3.87
2024-03-08T08:28:05.899Z,3.95
2024-03-08T08:30:34.729Z,3.87
2024-03-08T08:33:03.511Z,3.93
2024-03-08T08:35:32.496Z,4.00
2024-03-08T08:38:01.017Z,4.09
2024-03-08T08:40:30.476Z,4.19
2024-03-08T08:43:02.251Z,4.32
2024-03-08T08:45:31.804Z,4.40
2024-03-08T08:48:01.733Z,4.56
2024-03-08T08:50:30.078Z,4.66
2024-03-08T08:52:58.831Z,4.79
2024-03-08T08:55:27.775Z,4.96
2024-03-08T08:57:57.802Z,5.01
2024-03-08T09:00:29.184Z,5.11
2024-03-08T09:02:59.651Z,5.24
2024-03-08T09:05:29.300Z,5.23
2024-03-08T09:07:58.177Z,5.32
2024-03-08T09:12:58.271Z,5.46
2024-03-08T09:15:30.311Z,5.52
2024-03-08T09:18:00.778Z,5.48
2024-03-08T09:20:30.971Z,5.41
2024-03-08T09:22:59.687Z,5.49
2024-03-08T09:25:28.130Z,5.56
2024-03-08T09:27:56.800Z,5.44
2024-03-08T09:30:25.322Z,5.36
2024-03-08T09:32:55.074Z,5.39
2024-03-08T09:35:25.084Z,5.27
2024-03-08T09:37:54.303Z,5.13
2024-03-08T09:40:25.691Z,5.20
2024-03-08T09:42:54.252Z,5.27
2024-03-08T09:45:26.498Z,5.37
2024-03-08T09:47:56.033Z,5.50
2024-03-08T09:50:24.530Z,5.61
2024-03-08T09:52:53.114Z,5.63
2024-03-08T09:55:24.274Z,5.55
2024-03-08T09:58:13.102Z,5.26
2024-03-08T10:00:42.272Z,5.53
2024-03-08T10:03:14.910Z,5.60
2024-03-08T10:05:46.100Z,5.77
2024-03-08T10:08:14.887Z,5.77
2024-03-08T10:10:44.425Z,5.78
2024-03-08T10:13:15.382Z,5.88
2024-03-08T10:15:44.935Z,5.95
2024-03-08T10:18:13.586Z,6.02
2024-03-08T10:20:42.421Z,6.06
2024-03-08T10:23:12.289Z,6.15
2024-03-08T10:25:41.251Z,6.38
2024-03-08T10:28:09.785Z,6.57
2024-03-08T10:30:39.064Z,6.79
2024-03-08T10:33:08.216Z,7.01
2024-03-08T10:35:36.749Z,7.16
2024-03-08T10:38:10.238Z,7.18
2024-03-08T10:40:41.479Z,7.15
2024-03-08T10:43:28.255Z,7.15
2024-03-08T10:46:18.767Z,7.19
2024-03-08T10:48:50.843Z,7.16
2024-03-08T10:51:20.797Z,7.02
2024-03-08T10:53:50.347Z,6.79
2024-03-08T10:56:18.890Z,6.72
2024-03-08T10:58:48.656Z,6.53
2024-03-08T11:01:17.672Z,6.31
2024-03-08T11:03:47.918Z,5.90
2024-03-08T11:06:40.141Z,5.63
2024-03-08T11:09:33.592Z,5.63
2024-03-08T11:12:21.323Z,5.51
2024-03-08T11:14:52.000Z,5.54
2024-03-08T11:17:29.600Z,5.55
2024-03-08T11:20:00.484Z,5.66
2024-03-08T11:22:32.778Z,5.77
2024-03-08T11:25:11.394Z,5.83
2024-03-08T11:27:40.419Z,5.82
2024-03-08T11:30:17.163Z,5.75
2024-03-08T11:32:50.337Z,5.84
2024-03-08T11:35:22.104Z,5.81
2024-03-08T11:37:50.855Z,5.84
2024-03-08T11:40:21.636Z,5.89
2024-03-08T11:42:53.258Z,5.93
2024-03-08T11:45:22.927Z,6.07
2024-03-08T11:47:52.376Z,6.25
2024-03-08T11:50:22.466Z,6.23
2024-03-08T11:52:52.030Z,6.28
2024-03-08T11:55:22.015Z,6.41
2024-03-08T11:57:51.416Z,6.60
2024-03-08T12:00:27.830Z,6.79
2024-03-08T12:03:07.818Z,6.77
2024-03-08T12:05:37.214Z,7.11
2024-03-08T12:08:08.715Z,7.29
2024-03-08T12:10:37.228Z,7.47
2024-03-08T12:13:08.372Z,7.44
2024-03-08T12:15:37.303Z,7.41
2024-03-08T12:18:06.439Z,7.48
2024-03-08T12:20:34.964Z,7.29
2024-03-08T12:23:03.648Z,7.15
2024-03-08T12:25:36.884Z,7.12
2024-03-08T12:28:14.171Z,7.17
2024-03-08T12:30:55.599Z,7.11
2024-03-08T12:33:24.289Z,7.05
2024-03-08T12:35:55.748Z,7.08
2024-03-08T12:38:29.168Z,7.04
2024-03-08T12:41:00.093Z,6.95
2024-03-08T12:43:32.417Z,6.92
2024-03-08T12:46:01.758Z,6.78
2024-03-08T12:48:36.900Z,6.73
2024-03-08T12:51:07.236Z,6.69
2024-03-08T12:53:35.729Z,6.65
2024-03-08T12:56:06.391Z,6.76
2024-03-08T12:58:35.628Z,6.69
2024-03-08T13:01:06.462Z,6.61
2024-03-08T13:03:38.831Z,6.49
2024-03-08T13:06:10.142Z,6.47
2024-03-08T13:08:41.801Z,6.57
2024-03-08T13:11:13.213Z,6.83
2024-03-08T13:13:42.123Z,6.82
2024-03-08T13:16:10.906Z,6.85
2024-03-08T13:18:39.484Z,6.94
2024-03-08T13:21:08.409Z,6.92
2024-03-08T13:23:40.820Z,6.95
2024-03-08T13:26:10.638Z,7.07
2024-03-08T13:28:39.369Z,6.96
2024-03-08T13:31:07.954Z,6.94
2024-03-08T13:33:37.079Z,6.82
2024-03-08T13:36:09.818Z,6.75
2024-03-08T13:38:39.769Z,6.61
2024-03-08T13:41:09.430Z,6.29
2024-03-08T13:43:38.622Z,6.14
2024-03-08T13:46:08.419Z,6.02
2024-03-08T13:48:38.814Z,5.79
2024-03-08T13:51:07.968Z,5.64
2024-03-08T13:53:36.449Z,5.50
2024-03-08T13:56:07.103Z,5.38
2024-03-08T13:58:36.689Z,5.23
2024-03-08T14:01:07.533Z,5.11
2024-03-08T14:03:37.588Z,4.99
2024-03-08T14:06:06.391Z,4.94
2024-03-08T14:08:34.719Z,4.89
2024-03-08T14:11:12.198Z,4.86
2024-03-08T14:13:47.384Z,4.81
2024-03-08T14:16:16.939Z,4.77
2024-03-08T14:18:45.447Z,4.68
2024-03-08T14:21:13.746Z,4.61
2024-03-08T14:23:44.970Z,4.51
2024-03-08T14:26:13.808Z,4.46
2024-03-08T14:28:42.367Z,4.37
2024-03-08T14:31:13.184Z,4.30
2024-03-08T14:33:43.613Z,4.25
2024-03-08T14:36:15.008Z,4.20
2024-03-08T14:38:43.829Z,4.16
2024-03-08T14:41:12.449Z,4.12
2024-03-08T14:43:40.901Z,4.02
2024-03-08T14:46:09.867Z,3.97
2024-03-08T14:48:38.494Z,3.93
2024-03-08T14:51:10.412Z,3.89
2024-03-08T14:53:41.933Z,3.83
2024-03-08T14:56:10.547Z,3.80
2024-03-08T14:58:39.362Z,3.76
2024-03-08T15:01:09.247Z,3.69
2024-03-08T15:03:40.948Z,3.62
2024-03-08T15:06:10.777Z,3.59
2024-03-08T15:08:40.125Z,3.56
2024-03-08T15:11:10.123Z,3.52
2024-03-08T15:13:42.833Z,3.48
2024-03-08T15:16:19.573Z,3.41
2024-03-08T15:18:52.283Z,3.33
2024-03-08T15:21:20.906Z,3.26
2024-03-08T15:23:51.783Z,3.19
2024-03-08T15:26:20.269Z,3.16
2024-03-08T15:28:53.494Z,3.12
2024-03-08T15:31:24.962Z,3.08
2024-03-08T15:33:59.986Z,3.04
2024-03-08T15:36:34.808Z,3.03
2024-03-08T15:39:04.367Z,2.98
2024-03-08T15:41:33.077Z,2.93
2024-03-08T15:44:01.625Z,2.89
2024-03-08T15:46:30.665Z,2.85
2024-03-08T15:48:59.049Z,2.81
2024-03-08T15:51:27.739Z,2.78
2024-03-08T15:53:57.904Z,2.73
2024-03-08T15:56:27.446Z,2.69
2024-03-08T15:58:56.968Z,2.64
2024-03-08T16:01:26.330Z,2.63
2024-03-08T16:03:56.324Z,2.59
2024-03-08T16:06:26.247Z,2.59
2024-03-08T16:08:54.995Z,2.56
2024-03-08T16:11:24.616Z,2.52
2024-03-08T16:13:53.580Z,2.49
2024-03-08T16:16:23.457Z,2.47
2024-03-08T16:18:52.752Z,2.43
2024-03-08T16:21:21.129Z,2.40
2024-03-08T16:23:50.126Z,2.36
2024-03-08T16:26:19.336Z,2.31
2024-03-08T16:28:47.736Z,2.23
2024-03-08T16:31:16.331Z,2.11
2024-03-08T16:33:46.216Z,1.97
2024-03-08T16:36:15.582Z,1.85
2024-03-08T16:38:46.750Z,1.71
2024-03-08T16:41:15.617Z,1.59
2024-03-08T16:43:45.388Z,1.47
2024-03-08T16:46:15.194Z,1.35
2024-03-08T16:48:44.048Z,1.24
2024-03-08T16:51:12.871Z,1.14
2024-03-08T16:53:43.160Z,1.04
2024-03-08T16:56:14.350Z,0.94
2024-03-08T16:58:44.099Z,0.85
2024-03-08T17:01:13.306Z,0.77
2024-03-08T17:03:48.364Z,0.69
2024-03-08T17:06:24.997Z,0.63
2024-03-08T17:08:53.948Z,0.57
2024-03-08T17:11:23.809Z,0.50
2024-03-08T17:13:52.430Z,0.44
2024-03-08T17:16:26.342Z,0.37
2024-03-08T17:18:55.572Z,0.30
2024-03-08T17:21:24.179Z,0.24
2024-03-08T17:23:52.523Z,0.18
2024-03-08T17:26:21.283Z,0.14
2024-03-08T17:28:51.306Z,0.09
2024-03-08T17:31:22.349Z,0.04
2024-03-08T17:33:50.910Z,-0.02
2024-03-08T17:36:20.821Z,-0.07
2024-03-08T17:38:52.000Z,-0.12
2024-03-08T17:41:24.870Z,-0.19
2024-03-08T17:43:54.365Z,-0.24
2024-03-08T17:46:23.170Z,-0.27
2024-03-08T17:48:55.470Z,-0.30
2024-03-08T17:51:24.004Z,-0.32
2024-03-08T17:53:52.615Z,-0.33
2024-03-08T17:56:21.279Z,-0.33
2024-03-08T17:58:52.599Z,-0.33
2024-03-08T18:01:21.282Z,-0.34
2024-03-08T18:03:50.886Z,-0.37
2024-03-08T18:06:19.290Z,-0.39
2024-03-08T18:08:47.788Z,-0.41
2024-03-08T18:11:16.793Z,-0.42
2024-03-08T18:13:45.425Z,-0.42
2024-03-08T18:16:14.018Z,-0.43
2024-03-08T18:18:42.347Z,-0.45
2024-03-08T18:21:10.688Z,-0.46
2024-03-08T18:23:38.987Z,-0.50
2024-03-08T18:26:09.046Z,-0.54
2024-03-08T18:28:39.617Z,-0.60
2024-03-08T18:31:09.115Z,-0.64
2024-03-08T18:33:37.442Z,-0.66
2024-03-08T18:36:08.288Z,-0.67
2024-03-08T18:38:36.709Z,-0.69
2024-03-08T18:41:05.365Z,-0.72
2024-03-08T18:43:35.493Z,-0.76
2024-03-08T18:46:05.691Z,-0.79
2024-03-08T18:48:34.261Z,-0.83
2024-03-08T18:51:02.643Z,-0.87
2024-03-08T18:53:31.809Z,-0.89
2024-03-08T18:56:00.495Z,-0.89
2024-03-08T18:58:42.265Z,-0.88
2024-03-08T19:01:14.379Z,-0.87
2024-03-08T19:03:43.505Z,-0.88
2024-03-08T19:06:11.973Z,-0.88
2024-03-08T19:08:40.357Z,-0.88
2024-03-08T19:11:08.824Z,-0.89
2024-03-08T19:13:37.552Z,-0.91
2024-03-08T19:16:07.385Z,-0.94
2024-03-08T19:18:36.269Z,-0.95
2024-03-08T19:21:04.970Z,-0.98
2024-03-08T19:23:36.132Z,-1.01
2024-03-08T19:26:04.992Z,-1.03
2024-03-08T19:28:34.997Z,-1.06
2024-03-08T19:31:03.855Z,-1.08
2024-03-08T19:33:32.713Z,-1.10
2024-03-08T19:36:01.763Z,-1.13
2024-03-08T19:38:32.668Z,-1.15
2024-03-08T19:41:01.177Z,-1.15
2024-03-08T19:43:30.101Z,-1.16
2024-03-08T19:45:59.495Z,-1.17
2024-03-08T19:48:27.951Z,-1.16
2024-03-08T19:50:57.077Z,-1.18
2024-03-08T19:53:25.409Z,-1.18
2024-03-08T19:55:54.937Z,-1.19
2024-03-08T19:58:23.778Z,-1.20
2024-03-08T20:00:52.526Z,-1.22
2024-03-08T20:03:25.330Z,-1.25
2024-03-08T20:05:57.257Z,-1.26
2024-03-08T20:08:30.510Z,-1.28
2024-03-08T20:11:05.212Z,-1.28
2024-03-08T20:13:36.342Z,-1.29
2024-03-08T20:16:06.191Z,-1.31
2024-03-08T20:18:36.563Z,-1.32
2024-03-08T20:21:05.210Z,-1.35
2024-03-08T20:23:33.651Z,-1.36
2024-03-08T20:26:06.627Z,-1.38
2024-03-08T20:28:35.147Z,-1.40
2024-03-08T20:31:03.573Z,-1.43
2024-03-08T20:33:33.594Z,-1.47
2024-03-08T20:36:02.745Z,-1.52
2024-03-08T20:38:31.565Z,-1.58
2024-03-08T20:40:59.954Z,-1.63
2024-03-08T20:43:28.325Z,-1.66
2024-03-08T20:45:56.922Z,-1.69
2024-03-08T20:48:26.307Z,-1.71
2024-03-08T20:50:55.825Z,-1.74
2024-03-08T20:53:24.217Z,-1.76
2024-03-08T20:55:54.288Z,-1.78
2024-03-08T20:58:24.406Z,-1.80
2024-03-08T21:00:56.556Z,-1.80
2024-03-08T21:03:26.553Z,-1.79
2024-03-08T21:05:55.805Z,-1.78
2024-03-08T21:08:30.560Z,-1.78
2024-03-08T21:10:59.975Z,-1.78
2024-03-08T21:13:29.193Z,-1.78
2024-03-08T21:15:59.306Z,-1.79
2024-03-08T21:18:28.274Z,-1.79
2024-03-08T21:20:57.225Z,-1.82
2024-03-08T21:23:26.883Z,-1.83
2024-03-08T21:25:55.555Z,-1.86
2024-03-08T21:28:31.156Z,-1.88
2024-03-08T21:31:02.282Z,-1.92
2024-03-08T21:33:30.868Z,-1.96
2024-03-08T21:36:00.787Z,-2.00
2024-03-08T21:38:29.361Z,-2.04
2024-03-08T21:41:03.583Z,-2.08
2024-03-08T21:43:36.540Z,-2.11
2024-03-08T21:46:05.572Z,-2.14
2024-03-08T21:48:34.394Z,-2.15
2024-03-08T21:51:02.948Z,-2.16
2024-03-08T21:53:35.393Z,-2.17
2024-03-08T21:56:06.461Z,-2.19
2024-03-08T21:58:35.931Z,-2.20
2024-03-08T22:01:06.383Z,-2.21
2024-03-08T22:03:37.369Z,-2.22
2024-03-08T22:06:11.864Z,-2.23
2024-03-08T22:08:43.663Z,-2.24
2024-03-08T22:11:14.660Z,-2.25
2024-03-08T22:13:47.166Z,-2.25
2024-03-08T22:16:15.635Z,-2.22
2024-03-08T22:18:44.108Z,-2.20
2024-03-08T22:21:12.891Z,-2.18
2024-03-08T22:23:41.275Z,-2.16
2024-03-08T22:26:14.530Z,-2.15
2024-03-08T22:28:44.889Z,-2.14
2024-03-08T22:31:13.830Z,-2.14
2024-03-08T22:33:42.181Z,-2.15
2024-03-08T22:36:12.717Z,-2.18
2024-03-08T22:38:41.712Z,-2.19
2024-03-08T22:41:12.010Z,-2.21
2024-03-08T22:43:42.667Z,-2.23
2024-03-08T22:46:12.713Z,-2.25
2024-03-08T22:48:43.085Z,-2.28
2024-03-08T22:51:13.502Z,-2.31
2024-03-08T22:53:43.105Z,-2.35
2024-03-08T22:56:12.717Z,-2.37
2024-03-08T22:58:45.705Z,-2.39
2024-03-08T23:01:18.101Z,-2.41
2024-03-08T23:03:47.874Z,-2.44
2024-03-08T23:06:22.785Z,-2.50
2024-03-08T23:08:52.532Z,-2.54
2024-03-08T23:11:23.727Z,-2.58
2024-03-08T23:13:52.694Z,-2.63
2024-03-08T23:16:22.111Z,-2.68
2024-03-08T23:18:51.203Z,-2.73
2024-03-08T23:21:20.597Z,-2.76
2024-03-08T23:23:51.839Z,-2.78
2024-03-08T23:26:20.670Z,-2.80
2024-03-08T23:28:49.376Z,-2.82
2024-03-08T23:31:17.969Z,-2.84
2024-03-08T23:33:48.192Z,-2.86
2024-03-08T23:36:17.553Z,-2.88
2024-03-08T23:38:46.374Z,-2.91
2024-03-08T23:41:15.957Z,-2.94
2024-03-08T23:43:45.035Z,-2.96
2024-03-08T23:46:13.772Z,-2.98
2024-03-08T23:48:42.578Z,-2.97
2024-03-08T23:51:11.703Z,-2.95
2024-03-08T23:53:40.102Z,-2.94
2024-03-08T23:56:10.278Z,-2.91
2024-03-08T23:58:38.925Z,-2.87
